sensor_id;sensor_type;location;lat;lon;timestamp;temperature;humidity
71128;SHT30;59249;59.736;30.568;2023-07-08T00:00:33;15.43;78.04
71128;SHT30;59249;59.736;30.568;2023-07-08T00:03:05;15.44;78.05
71128;SHT30;59249;59.736;30.568;2023-07-08T00:05:35;15.42;78.02
71128;SHT30;59249;59.736;30.568;2023-07-08T00:08:04;15.35;77.98
71128;SHT30;59249;59.736;30.568;2023-07-08T00:10:33;15.29;77.82
71128;SHT30;59249;59.736;30.568;2023-07-08T00:13:02;15.22;78.19
71128;SHT30;59249;59.736;30.568;2023-07-08T00:15:33;15.18;78.49
71128;SHT30;59249;59.736;30.568;2023-07-08T00:18:11;15.18;78.95
71128;SHT30;59249;59.736;30.568;2023-07-08T00:20:44;15.17;79.34
71128;SHT30;59249;59.736;30.568;2023-07-08T00:23:13;15.15;79.81
71128;SHT30;59249;59.736;30.568;2023-07-08T00:25:43;15.13;80.37
71128;SHT30;59249;59.736;30.568;2023-07-08T00:28:16;15.14;80.49
71128;SHT30;59249;59.736;30.568;2023-07-08T00:30:46;15.14;80.41
71128;SHT30;59249;59.736;30.568;2023-07-08T00:33:17;15.14;80.52
71128;SHT30;59249;59.736;30.568;2023-07-08T00:35:46;15.10;80.29
71128;SHT30;59249;59.736;30.568;2023-07-08T00:38:20;15.07;80.29
71128;SHT30;59249;59.736;30.568;2023-07-08T00:41:06;15.02;80.26
71128;SHT30;59249;59.736;30.568;2023-07-08T00:43:38;14.98;80.65
71128;SHT30;59249;59.736;30.568;2023-07-08T00:46:28;14.94;80.61
71128;SHT30;59249;59.736;30.568;2023-07-08T00:49:10;14.92;80.57
71128;SHT30;59249;59.736;30.568;2023-07-08T00:51:42;14.84;81.00
71128;SHT30;59249;59.736;30.568;2023-07-08T00:54:17;14.85;81.54
71128;SHT30;59249;59.736;30.568;2023-07-08T00:56:50;14.78;82.02
71128;SHT30;59249;59.736;30.568;2023-07-08T00:59:26;14.74;82.11
71128;SHT30;59249;59.736;30.568;2023-07-08T01:02:01;14.76;81.98
71128;SHT30;59249;59.736;30.568;2023-07-08T01:04:40;14.73;82.42
71128;SHT30;59249;59.736;30.568;2023-07-08T01:07:11;14.72;82.47
71128;SHT30;59249;59.736;30.568;2023-07-08T01:09:44;14.69;82.34
71128;SHT30;59249;59.736;30.568;2023-07-08T01:12:20;14.65;82.49
71128;SHT30;59249;59.736;30.568;2023-07-08T01:14:54;14.62;82.73
71128;SHT30;59249;59.736;30.568;2023-07-08T01:17:24;14.62;82.58
71128;SHT30;59249;59.736;30.568;2023-07-08T01:19:56;14.60;82.75
71128;SHT30;59249;59.736;30.568;2023-07-08T01:22:26;14.57;82.78
71128;SHT30;59249;59.736;30.568;2023-07-08T01:25:01;14.55;82.82
71128;SHT30;59249;59.736;30.568;2023-07-08T01:27:37;14.48;82.91
71128;SHT30;59249;59.736;30.568;2023-07-08T01:30:08;14.47;82.93
71128;SHT30;59249;59.736;30.568;2023-07-08T01:32:44;14.47;83.10
71128;SHT30;59249;59.736;30.568;2023-07-08T01:35:15;14.55;82.86
71128;SHT30;59249;59.736;30.568;2023-07-08T01:37:50;14.73;82.30
71128;SHT30;59249;59.736;30.568;2023-07-08T01:40:27;14.83;81.79
71128;SHT30;59249;59.736;30.568;2023-07-08T01:42:57;15.01;81.35
71128;SHT30;59249;59.736;30.568;2023-07-08T01:45:31;15.14;80.59
71128;SHT30;59249;59.736;30.568;2023-07-08T01:48:11;15.30;80.13
71128;SHT30;59249;59.736;30.568;2023-07-08T01:50:46;15.58;79.43
71128;SHT30;59249;59.736;30.568;2023-07-08T01:53:28;15.71;79.00
71128;SHT30;59249;59.736;30.568;2023-07-08T01:55:57;16.01;78.57
71128;SHT30;59249;59.736;30.568;2023-07-08T01:58:27;16.19;77.90
71128;SHT30;59249;59.736;30.568;2023-07-08T02:00:56;16.28;77.47
71128;SHT30;59249;59.736;30.568;2023-07-08T02:03:26;16.50;76.81
71128;SHT30;59249;59.736;30.568;2023-07-08T02:05:55;16.61;76.19
71128;SHT30;59249;59.736;30.568;2023-07-08T02:08:26;16.90;76.03
71128;SHT30;59249;59.736;30.568;2023-07-08T02:10:57;17.10;75.72
71128;SHT30;59249;59.736;30.568;2023-07-08T02:13:27;17.26;75.39
71128;SHT30;59249;59.736;30.568;2023-07-08T02:15:56;17.26;74.89
71128;SHT30;59249;59.736;30.568;2023-07-08T02:18:26;17.38;74.72
71128;SHT30;59249;59.736;30.568;2023-07-08T02:20:55;17.47;74.53
71128;SHT30;59249;59.736;30.568;2023-07-08T02:23:26;17.58;74.50
71128;SHT30;59249;59.736;30.568;2023-07-08T02:25:59;17.82;73.81
71128;SHT30;59249;59.736;30.568;2023-07-08T02:28:28;18.09;73.43
71128;SHT30;59249;59.736;30.568;2023-07-08T02:31:02;18.17;72.61
71128;SHT30;59249;59.736;30.568;2023-07-08T02:33:31;17.99;72.72
71128;SHT30;59249;59.736;30.568;2023-07-08T02:36:01;17.81;73.52
71128;SHT30;59249;59.736;30.568;2023-07-08T02:38:31;17.56;74.49
71128;SHT30;59249;59.736;30.568;2023-07-08T02:41:00;17.35;74.89
71128;SHT30;59249;59.736;30.568;2023-07-08T02:43:29;17.21;75.54
71128;SHT30;59249;59.736;30.568;2023-07-08T02:45:59;17.08;76.06
71128;SHT30;59249;59.736;30.568;2023-07-08T02:48:28;16.98;76.49
71128;SHT30;59249;59.736;30.568;2023-07-08T02:50:59;16.90;76.57
71128;SHT30;59249;59.736;30.568;2023-07-08T02:53:29;16.92;76.88
71128;SHT30;59249;59.736;30.568;2023-07-08T02:55:59;17.03;76.69
71128;SHT30;59249;59.736;30.568;2023-07-08T02:58:28;17.00;76.56
71128;SHT30;59249;59.736;30.568;2023-07-08T03:00:57;17.19;76.60
71128;SHT30;59249;59.736;30.568;2023-07-08T03:03:31;17.49;76.08
71128;SHT30;59249;59.736;30.568;2023-07-08T03:06:06;17.84;75.21
71128;SHT30;59249;59.736;30.568;2023-07-08T03:08:35;18.11;74.28
71128;SHT30;59249;59.736;30.568;2023-07-08T03:11:07;18.34;73.37
71128;SHT30;59249;59.736;30.568;2023-07-08T03:13:36;18.49;72.68
71128;SHT30;59249;59.736;30.568;2023-07-08T03:16:05;18.53;72.58
71128;SHT30;59249;59.736;30.568;2023-07-08T03:18:42;18.65;72.46
71128;SHT30;59249;59.736;30.568;2023-07-08T03:21:17;18.87;71.83
71128;SHT30;59249;59.736;30.568;2023-07-08T03:23:51;19.03;71.50
71128;SHT30;59249;59.736;30.568;2023-07-08T03:26:24;19.05;71.53
71128;SHT30;59249;59.736;30.568;2023-07-08T03:28:57;19.09;71.67
71128;SHT30;59249;59.736;30.568;2023-07-08T03:31:26;19.26;71.32
71128;SHT30;59249;59.736;30.568;2023-07-08T03:33:57;19.35;71.08
71128;SHT30;59249;59.736;30.568;2023-07-08T03:36:28;19.38;71.08
71128;SHT30;59249;59.736;30.568;2023-07-08T03:38:57;19.28;71.29
71128;SHT30;59249;59.736;30.568;2023-07-08T03:41:29;19.00;72.52
71128;SHT30;59249;59.736;30.568;2023-07-08T03:43:58;18.88;73.01
71128;SHT30;59249;59.736;30.568;2023-07-08T03:46:27;18.80;73.53
71128;SHT30;59249;59.736;30.568;2023-07-08T03:48:56;18.68;73.98
71128;SHT30;59249;59.736;30.568;2023-07-08T03:51:29;18.57;74.35
71128;SHT30;59249;59.736;30.568;2023-07-08T03:53:58;18.49;74.78
71128;SHT30;59249;59.736;30.568;2023-07-08T03:56:30;18.35;75.04
71128;SHT30;59249;59.736;30.568;2023-07-08T03:59:00;18.30;75.34
71128;SHT30;59249;59.736;30.568;2023-07-08T04:01:30;18.26;75.67
71128;SHT30;59249;59.736;30.568;2023-07-08T04:03:59;18.28;75.76
71128;SHT30;59249;59.736;30.568;2023-07-08T04:06:28;18.28;75.79
71128;SHT30;59249;59.736;30.568;2023-07-08T04:08:57;18.28;75.99
71128;SHT30;59249;59.736;30.568;2023-07-08T04:11:26;18.37;75.92
71128;SHT30;59249;59.736;30.568;2023-07-08T04:13:57;18.39;76.10
71128;SHT30;59249;59.736;30.568;2023-07-08T04:16:37;18.33;76.72
71128;SHT30;59249;59.736;30.568;2023-07-08T04:19:15;18.50;76.65
71128;SHT30;59249;59.736;30.568;2023-07-08T04:21:45;18.58;76.89
71128;SHT30;59249;59.736;30.568;2023-07-08T04:24:16;18.53;76.55
71128;SHT30;59249;59.736;30.568;2023-07-08T04:26:48;18.52;76.53
71128;SHT30;59249;59.736;30.568;2023-07-08T04:29:21;18.48;76.49
71128;SHT30;59249;59.736;30.568;2023-07-08T04:31:50;18.59;76.53
71128;SHT30;59249;59.736;30.568;2023-07-08T04:34:19;18.53;76.44
71128;SHT30;59249;59.736;30.568;2023-07-08T04:36:48;18.52;76.66
71128;SHT30;59249;59.736;30.568;2023-07-08T04:39:17;18.58;76.46
71128;SHT30;59249;59.736;30.568;2023-07-08T04:41:46;18.66;76.31
71128;SHT30;59249;59.736;30.568;2023-07-08T04:44:15;18.70;75.88
71128;SHT30;59249;59.736;30.568;2023-07-08T04:46:50;18.69;75.84
71128;SHT30;59249;59.736;30.568;2023-07-08T04:49:23;18.71;75.63
71128;SHT30;59249;59.736;30.568;2023-07-08T04:52:05;18.82;75.66
71128;SHT30;59249;59.736;30.568;2023-07-08T04:54:42;18.79;75.62
71128;SHT30;59249;59.736;30.568;2023-07-08T04:57:11;18.79;75.54
71128;SHT30;59249;59.736;30.568;2023-07-08T04:59:40;18.75;75.72
71128;SHT30;59249;59.736;30.568;2023-07-08T05:02:10;18.77;75.74
71128;SHT30;59249;59.736;30.568;2023-07-08T05:04:39;18.70;75.83
71128;SHT30;59249;59.736;30.568;2023-07-08T05:07:08;18.86;75.65
71128;SHT30;59249;59.736;30.568;2023-07-08T05:09:37;19.03;75.58
71128;SHT30;59249;59.736;30.568;2023-07-08T05:12:07;19.17;74.67
71128;SHT30;59249;59.736;30.568;2023-07-08T05:14:39;19.26;74.36
71128;SHT30;59249;59.736;30.568;2023-07-08T05:17:07;19.25;74.04
71128;SHT30;59249;59.736;30.568;2023-07-08T05:19:41;19.26;73.85
71128;SHT30;59249;59.736;30.568;2023-07-08T05:22:11;19.38;73.83
71128;SHT30;59249;59.736;30.568;2023-07-08T05:24:40;19.47;73.48
71128;SHT30;59249;59.736;30.568;2023-07-08T05:27:10;19.54;72.91
71128;SHT30;59249;59.736;30.568;2023-07-08T05:29:41;19.65;72.19
71128;SHT30;59249;59.736;30.568;2023-07-08T05:32:10;19.55;71.74
71128;SHT30;59249;59.736;30.568;2023-07-08T05:34:40;19.39;71.79
71128;SHT30;59249;59.736;30.568;2023-07-08T05:37:10;19.31;71.60
71128;SHT30;59249;59.736;30.568;2023-07-08T05:39:39;19.31;71.50
71128;SHT30;59249;59.736;30.568;2023-07-08T05:42:08;19.49;71.16
71128;SHT30;59249;59.736;30.568;2023-07-08T05:44:39;19.75;70.77
71128;SHT30;59249;59.736;30.568;2023-07-08T05:47:08;19.99;69.92
71128;SHT30;59249;59.736;30.568;2023-07-08T05:49:37;20.15;69.22
71128;SHT30;59249;59.736;30.568;2023-07-08T05:52:07;20.20;69.11
71128;SHT30;59249;59.736;30.568;2023-07-08T05:54:38;20.27;68.75
71128;SHT30;59249;59.736;30.568;2023-07-08T05:57:09;20.43;68.85
71128;SHT30;59249;59.736;30.568;2023-07-08T05:59:38;20.59;68.06
71128;SHT30;59249;59.736;30.568;2023-07-08T06:02:10;20.76;67.31
71128;SHT30;59249;59.736;30.568;2023-07-08T06:04:42;20.71;66.67
71128;SHT30;59249;59.736;30.568;2023-07-08T06:07:12;20.82;66.58
71128;SHT30;59249;59.736;30.568;2023-07-08T06:09:41;20.78;66.35
71128;SHT30;59249;59.736;30.568;2023-07-08T06:12:14;20.99;66.12
71128;SHT30;59249;59.736;30.568;2023-07-08T06:14:46;21.03;65.71
71128;SHT30;59249;59.736;30.568;2023-07-08T06:17:16;21.04;65.68
71128;SHT30;59249;59.736;30.568;2023-07-08T06:19:45;21.06;66.20
71128;SHT30;59249;59.736;30.568;2023-07-08T06:22:15;21.04;66.67
71128;SHT30;59249;59.736;30.568;2023-07-08T06:25:05;20.95;67.06
71128;SHT30;59249;59.736;30.568;2023-07-08T06:27:33;20.68;67.67
71128;SHT30;59249;59.736;30.568;2023-07-08T06:30:06;20.64;67.95
71128;SHT30;59249;59.736;30.568;2023-07-08T06:32:38;20.56;68.26
71128;SHT30;59249;59.736;30.568;2023-07-08T06:35:09;20.50;68.45
71128;SHT30;59249;59.736;30.568;2023-07-08T06:37:40;20.42;68.30
71128;SHT30;59249;59.736;30.568;2023-07-08T06:40:10;20.35;68.56
71128;SHT30;59249;59.736;30.568;2023-07-08T06:42:38;20.33;68.30
71128;SHT30;59249;59.736;30.568;2023-07-08T06:45:18;20.50;67.44
71128;SHT30;59249;59.736;30.568;2023-07-08T06:47:50;20.50;67.20
71128;SHT30;59249;59.736;30.568;2023-07-08T06:50:19;20.50;67.34
71128;SHT30;59249;59.736;30.568;2023-07-08T06:52:49;20.52;66.92
71128;SHT30;59249;59.736;30.568;2023-07-08T06:55:18;20.49;66.31
71128;SHT30;59249;59.736;30.568;2023-07-08T06:57:47;20.57;66.40
71128;SHT30;59249;59.736;30.568;2023-07-08T07:00:18;20.71;66.28
71128;SHT30;59249;59.736;30.568;2023-07-08T07:02:47;20.99;66.11
71128;SHT30;59249;59.736;30.568;2023-07-08T07:05:16;21.12;65.43
71128;SHT30;59249;59.736;30.568;2023-07-08T07:07:50;21.25;65.11
71128;SHT30;59249;59.736;30.568;2023-07-08T07:10:20;21.22;65.01
71128;SHT30;59249;59.736;30.568;2023-07-08T07:12:49;21.38;65.35
71128;SHT30;59249;59.736;30.568;2023-07-08T07:15:17;21.43;65.36
71128;SHT30;59249;59.736;30.568;2023-07-08T07:17:46;21.63;65.42
71128;SHT30;59249;59.736;30.568;2023-07-08T07:20:15;21.55;65.52
71128;SHT30;59249;59.736;30.568;2023-07-08T07:22:44;21.63;64.61
71128;SHT30;59249;59.736;30.568;2023-07-08T07:25:15;21.59;64.74
71128;SHT30;59249;59.736;30.568;2023-07-08T07:27:45;21.70;63.74
71128;SHT30;59249;59.736;30.568;2023-07-08T07:30:14;21.61;63.50
71128;SHT30;59249;59.736;30.568;2023-07-08T07:32:43;21.70;63.85
71128;SHT30;59249;59.736;30.568;2023-07-08T07:35:15;21.78;63.97
71128;SHT30;59249;59.736;30.568;2023-07-08T07:37:45;21.89;63.13
71128;SHT30;59249;59.736;30.568;2023-07-08T07:40:15;21.89;63.16
71128;SHT30;59249;59.736;30.568;2023-07-08T07:42:45;21.80;62.86
71128;SHT30;59249;59.736;30.568;2023-07-08T07:45:14;21.78;62.53
71128;SHT30;59249;59.736;30.568;2023-07-08T07:47:43;21.69;62.61
71128;SHT30;59249;59.736;30.568;2023-07-08T07:50:12;21.49;64.51
71128;SHT30;59249;59.736;30.568;2023-07-08T07:52:41;21.41;66.91
71128;SHT30;59249;59.736;30.568;2023-07-08T07:55:14;21.50;68.06
71128;SHT30;59249;59.736;30.568;2023-07-08T07:57:43;21.42;67.70
71128;SHT30;59249;59.736;30.568;2023-07-08T08:00:14;21.23;67.08
71128;SHT30;59249;59.736;30.568;2023-07-08T08:02:45;21.00;68.23
71128;SHT30;59249;59.736;30.568;2023-07-08T08:05:17;20.49;70.03
71128;SHT30;59249;59.736;30.568;2023-07-08T08:07:46;20.12;71.95
71128;SHT30;59249;59.736;30.568;2023-07-08T08:10:16;19.68;72.00
71128;SHT30;59249;59.736;30.568;2023-07-08T08:12:45;19.54;72.30
71128;SHT30;59249;59.736;30.568;2023-07-08T08:15:21;19.47;72.87
71128;SHT30;59249;59.736;30.568;2023-07-08T08:17:53;19.47;72.55
71128;SHT30;59249;59.736;30.568;2023-07-08T08:20:24;19.69;72.05
71128;SHT30;59249;59.736;30.568;2023-07-08T08:22:57;19.80;72.44
71128;SHT30;59249;59.736;30.568;2023-07-08T08:25:27;19.95;72.40
71128;SHT30;59249;59.736;30.568;2023-07-08T08:27:55;20.04;70.27
71128;SHT30;59249;59.736;30.568;2023-07-08T08:30:24;20.13;70.46
71128;SHT30;59249;59.736;30.568;2023-07-08T08:32:53;20.27;70.70
71128;SHT30;59249;59.736;30.568;2023-07-08T08:35:22;20.50;71.56
71128;SHT30;59249;59.736;30.568;2023-07-08T08:37:50;20.66;71.74
71128;SHT30;59249;59.736;30.568;2023-07-08T08:40:21;20.96;71.13
71128;SHT30;59249;59.736;30.568;2023-07-08T08:43:02;21.15;68.80
71128;SHT30;59249;59.736;30.568;2023-07-08T08:45:43;21.11;68.01
71128;SHT30;59249;59.736;30.568;2023-07-08T08:48:17;21.22;67.48
71128;SHT30;59249;59.736;30.568;2023-07-08T08:50:53;21.17;67.57
71128;SHT30;59249;59.736;30.568;2023-07-08T08:53:26;21.20;66.90
71128;SHT30;59249;59.736;30.568;2023-07-08T08:56:09;21.24;66.96
71128;SHT30;59249;59.736;30.568;2023-07-08T08:58:44;21.41;66.41
71128;SHT30;59249;59.736;30.568;2023-07-08T09:01:17;21.56;66.90
71128;SHT30;59249;59.736;30.568;2023-07-08T09:03:51;21.77;66.79
71128;SHT30;59249;59.736;30.568;2023-07-08T09:06:27;21.87;66.77
71128;SHT30;59249;59.736;30.568;2023-07-08T09:09:02;21.92;66.36
71128;SHT30;59249;59.736;30.568;2023-07-08T09:11:44;21.90;65.95
71128;SHT30;59249;59.736;30.568;2023-07-08T09:14:23;21.96;66.14
71128;SHT30;59249;59.736;30.568;2023-07-08T09:17:10;22.18;65.00
71128;SHT30;59249;59.736;30.568;2023-07-08T09:19:47;22.19;65.00
71128;SHT30;59249;59.736;30.568;2023-07-08T09:22:30;22.13;64.82
71128;SHT30;59249;59.736;30.568;2023-07-08T09:25:22;21.65;63.69
71128;SHT30;59249;59.736;30.568;2023-07-08T09:27:52;21.37;63.71
71128;SHT30;59249;59.736;30.568;2023-07-08T09:30:24;21.37;64.10
71128;SHT30;59249;59.736;30.568;2023-07-08T09:32:57;21.53;63.82
71128;SHT30;59249;59.736;30.568;2023-07-08T09:35:29;21.66;64.37
71128;SHT30;59249;59.736;30.568;2023-07-08T09:38:08;21.86;64.05
71128;SHT30;59249;59.736;30.568;2023-07-08T09:40:39;21.74;63.10
71128;SHT30;59249;59.736;30.568;2023-07-08T09:43:23;21.82;62.43
71128;SHT30;59249;59.736;30.568;2023-07-08T09:45:58;21.74;61.56
71128;SHT30;59249;59.736;30.568;2023-07-08T09:48:30;21.63;61.68
71128;SHT30;59249;59.736;30.568;2023-07-08T09:51:02;21.53;63.31
71128;SHT30;59249;59.736;30.568;2023-07-08T09:53:35;21.41;64.75
71128;SHT30;59249;59.736;30.568;2023-07-08T09:56:05;21.45;65.32
71128;SHT30;59249;59.736;30.568;2023-07-08T09:58:41;21.50;66.59
71128;SHT30;59249;59.736;30.568;2023-07-08T10:01:23;21.69;66.39
71128;SHT30;59249;59.736;30.568;2023-07-08T10:03:58;21.85;66.59
71128;SHT30;59249;59.736;30.568;2023-07-08T10:06:31;22.04;65.60
71128;SHT30;59249;59.736;30.568;2023-07-08T10:09:04;22.17;65.56
71128;SHT30;59249;59.736;30.568;2023-07-08T10:11:39;22.25;64.62
71128;SHT30;59249;59.736;30.568;2023-07-08T10:14:18;22.40;64.39
71128;SHT30;59249;59.736;30.568;2023-07-08T10:16:53;22.57;63.63
71128;SHT30;59249;59.736;30.568;2023-07-08T10:19:22;22.67;63.02
71128;SHT30;59249;59.736;30.568;2023-07-08T10:22:15;22.90;62.96
71128;SHT30;59249;59.736;30.568;2023-07-08T10:25:06;23.03;60.14
71128;SHT30;59249;59.736;30.568;2023-07-08T10:27:47;23.19;60.21
71128;SHT30;59249;59.736;30.568;2023-07-08T10:30:23;23.43;59.08
71128;SHT30;59249;59.736;30.568;2023-07-08T10:33:20;23.50;57.65
71128;SHT30;59249;59.736;30.568;2023-07-08T10:36:14;23.52;58.07
71128;SHT30;59249;59.736;30.568;2023-07-08T10:38:57;23.60;58.77
71128;SHT30;59249;59.736;30.568;2023-07-08T10:41:37;23.75;58.72
71128;SHT30;59249;59.736;30.568;2023-07-08T10:44:19;24.08;58.25
71128;SHT30;59249;59.736;30.568;2023-07-08T10:47:02;24.36;57.75
71128;SHT30;59249;59.736;30.568;2023-07-08T10:49:56;24.45;57.42
71128;SHT30;59249;59.736;30.568;2023-07-08T10:52:53;24.72;57.05
71128;SHT30;59249;59.736;30.568;2023-07-08T10:55:40;24.67;56.34
71128;SHT30;59249;59.736;30.568;2023-07-08T10:58:36;24.25;57.18
71128;SHT30;59249;59.736;30.568;2023-07-08T11:01:17;24.20;57.18
71128;SHT30;59249;59.736;30.568;2023-07-08T11:04:30;23.83;56.04
71128;SHT30;59249;59.736;30.568;2023-07-08T11:07:10;23.69;57.32
71128;SHT30;59249;59.736;30.568;2023-07-08T11:09:48;23.51;58.47
71128;SHT30;59249;59.736;30.568;2023-07-08T11:12:27;23.39;59.01
71128;SHT30;59249;59.736;30.568;2023-07-08T11:15:03;23.34;58.62
71128;SHT30;59249;59.736;30.568;2023-07-08T11:17:42;23.13;59.44
71128;SHT30;59249;59.736;30.568;2023-07-08T11:20:21;23.08;59.91
71128;SHT30;59249;59.736;30.568;2023-07-08T11:22:59;22.99;60.17
71128;SHT30;59249;59.736;30.568;2023-07-08T11:25:31;22.90;60.35
71128;SHT30;59249;59.736;30.568;2023-07-08T11:28:04;22.75;60.87
71128;SHT30;59249;59.736;30.568;2023-07-08T11:30:35;22.67;61.54
71128;SHT30;59249;59.736;30.568;2023-07-08T11:33:12;22.53;62.49
71128;SHT30;59249;59.736;30.568;2023-07-08T11:35:46;22.44;62.99
71128;SHT30;59249;59.736;30.568;2023-07-08T11:38:22;22.33;63.34
71128;SHT30;59249;59.736;30.568;2023-07-08T11:40:58;22.22;62.73
71128;SHT30;59249;59.736;30.568;2023-07-08T11:43:37;22.14;62.56
71128;SHT30;59249;59.736;30.568;2023-07-08T11:46:19;21.95;61.89
71128;SHT30;59249;59.736;30.568;2023-07-08T11:48:51;21.68;63.81
71128;SHT30;59249;59.736;30.568;2023-07-08T11:51:26;21.25;65.71
71128;SHT30;59249;59.736;30.568;2023-07-08T11:54:11;20.88;66.40
71128;SHT30;59249;59.736;30.568;2023-07-08T11:56:58;20.68;67.32
71128;SHT30;59249;59.736;30.568;2023-07-08T11:59:33;20.40;68.96
71128;SHT30;59249;59.736;30.568;2023-07-08T12:02:04;20.30;69.47
71128;SHT30;59249;59.736;30.568;2023-07-08T12:04:52;20.21;70.30
71128;SHT30;59249;59.736;30.568;2023-07-08T12:07:33;20.08;70.55
71128;SHT30;59249;59.736;30.568;2023-07-08T12:10:16;19.98;70.85
71128;SHT30;59249;59.736;30.568;2023-07-08T12:12:47;19.85;72.14
71128;SHT30;59249;59.736;30.568;2023-07-08T12:15:23;19.66;73.64
71128;SHT30;59249;59.736;30.568;2023-07-08T12:17:55;19.41;73.06
71128;SHT30;59249;59.736;30.568;2023-07-08T12:20:29;19.48;71.86
71128;SHT30;59249;59.736;30.568;2023-07-08T12:23:00;19.54;71.82
71128;SHT30;59249;59.736;30.568;2023-07-08T12:25:33;19.65;71.96
71128;SHT30;59249;59.736;30.568;2023-07-08T12:28:05;19.77;72.32
71128;SHT30;59249;59.736;30.568;2023-07-08T12:30:34;19.79;72.70
71128;SHT30;59249;59.736;30.568;2023-07-08T12:33:12;19.79;72.08
71128;SHT30;59249;59.736;30.568;2023-07-08T12:35:43;19.90;71.96
71128;SHT30;59249;59.736;30.568;2023-07-08T12:38:27;19.99;71.89
71128;SHT30;59249;59.736;30.568;2023-07-08T12:41:00;20.15;71.18
71128;SHT30;59249;59.736;30.568;2023-07-08T12:43:30;20.40;69.99
71128;SHT30;59249;59.736;30.568;2023-07-08T12:45:59;20.59;69.81
71128;SHT30;59249;59.736;30.568;2023-07-08T12:48:33;20.62;68.30
71128;SHT30;59249;59.736;30.568;2023-07-08T12:51:04;20.80;67.67
71128;SHT30;59249;59.736;30.568;2023-07-08T12:53:33;20.99;67.36
71128;SHT30;59249;59.736;30.568;2023-07-08T12:56:04;21.12;67.46
71128;SHT30;59249;59.736;30.568;2023-07-08T12:58:39;21.35;67.15
71128;SHT30;59249;59.736;30.568;2023-07-08T13:01:17;21.47;67.25
71128;SHT30;59249;59.736;30.568;2023-07-08T13:03:58;21.56;67.64
71128;SHT30;59249;59.736;30.568;2023-07-08T13:06:31;21.57;68.28
71128;SHT30;59249;59.736;30.568;2023-07-08T13:09:22;21.55;69.11
71128;SHT30;59249;59.736;30.568;2023-07-08T13:11:55;21.47;69.78
71128;SHT30;59249;59.736;30.568;2023-07-08T13:14:25;21.53;69.07
71128;SHT30;59249;59.736;30.568;2023-07-08T13:16:55;21.47;69.17
71128;SHT30;59249;59.736;30.568;2023-07-08T13:19:24;21.48;69.50
71128;SHT30;59249;59.736;30.568;2023-07-08T13:21:56;21.54;69.60
71128;SHT30;59249;59.736;30.568;2023-07-08T13:24:31;21.70;69.78
71128;SHT30;59249;59.736;30.568;2023-07-08T13:27:08;21.77;69.80
71128;SHT30;59249;59.736;30.568;2023-07-08T13:29:38;21.94;68.99
71128;SHT30;59249;59.736;30.568;2023-07-08T13:32:11;22.20;68.09
71128;SHT30;59249;59.736;30.568;2023-07-08T13:34:40;22.31;67.21
71128;SHT30;59249;59.736;30.568;2023-07-08T13:37:12;22.55;66.82
71128;SHT30;59249;59.736;30.568;2023-07-08T13:39:45;22.58;65.50
71128;SHT30;59249;59.736;30.568;2023-07-08T13:42:16;22.68;65.70
71128;SHT30;59249;59.736;30.568;2023-07-08T13:44:46;22.71;65.89
71128;SHT30;59249;59.736;30.568;2023-07-08T13:47:26;22.68;64.54
71128;SHT30;59249;59.736;30.568;2023-07-08T13:50:07;22.69;64.67
71128;SHT30;59249;59.736;30.568;2023-07-08T13:52:45;22.73;64.44
71128;SHT30;59249;59.736;30.568;2023-07-08T13:55:18;22.61;64.83
71128;SHT30;59249;59.736;30.568;2023-07-08T13:58:00;22.32;66.51
71128;SHT30;59249;59.736;30.568;2023-07-08T14:00:31;22.27;66.13
71128;SHT30;59249;59.736;30.568;2023-07-08T14:03:00;22.15;66.19
71128;SHT30;59249;59.736;30.568;2023-07-08T14:05:29;21.78;66.96
71128;SHT30;59249;59.736;30.568;2023-07-08T14:07:58;21.68;64.93
71128;SHT30;59249;59.736;30.568;2023-07-08T14:10:27;21.18;61.56
71128;SHT30;59249;59.736;30.568;2023-07-08T14:12:57;21.07;63.09
71128;SHT30;59249;59.736;30.568;2023-07-08T14:15:26;20.98;64.25
71128;SHT30;59249;59.736;30.568;2023-07-08T14:17:55;20.89;65.77
71128;SHT30;59249;59.736;30.568;2023-07-08T14:20:26;20.87;67.00
71128;SHT30;59249;59.736;30.568;2023-07-08T14:22:56;20.89;67.61
71128;SHT30;59249;59.736;30.568;2023-07-08T14:25:25;20.56;69.31
71128;SHT30;59249;59.736;30.568;2023-07-08T14:27:54;20.49;70.04
71128;SHT30;59249;59.736;30.568;2023-07-08T14:30:24;20.43;70.80
71128;SHT30;59249;59.736;30.568;2023-07-08T14:32:53;20.41;71.10
71128;SHT30;59249;59.736;30.568;2023-07-08T14:35:25;20.29;71.82
71128;SHT30;59249;59.736;30.568;2023-07-08T14:37:55;20.21;72.35
71128;SHT30;59249;59.736;30.568;2023-07-08T14:40:29;20.11;73.17
71128;SHT30;59249;59.736;30.568;2023-07-08T14:43:01;19.93;73.86
71128;SHT30;59249;59.736;30.568;2023-07-08T14:45:40;19.99;73.56
71128;SHT30;59249;59.736;30.568;2023-07-08T14:48:09;19.96;73.85
71128;SHT30;59249;59.736;30.568;2023-07-08T14:50:39;19.96;73.82
71128;SHT30;59249;59.736;30.568;2023-07-08T14:53:08;19.92;74.03
71128;SHT30;59249;59.736;30.568;2023-07-08T14:55:37;20.02;73.65
71128;SHT30;59249;59.736;30.568;2023-07-08T14:58:06;19.99;73.61
71128;SHT30;59249;59.736;30.568;2023-07-08T15:00:36;20.09;73.49
71128;SHT30;59249;59.736;30.568;2023-07-08T15:03:06;19.96;73.94
71128;SHT30;59249;59.736;30.568;2023-07-08T15:05:36;19.97;73.88
71128;SHT30;59249;59.736;30.568;2023-07-08T15:08:05;19.92;74.01
71128;SHT30;59249;59.736;30.568;2023-07-08T15:10:34;19.90;74.06
71128;SHT30;59249;59.736;30.568;2023-07-08T15:13:04;20.11;74.04
71128;SHT30;59249;59.736;30.568;2023-07-08T15:15:37;20.31;73.65
71128;SHT30;59249;59.736;30.568;2023-07-08T15:18:12;20.49;73.11
71128;SHT30;59249;59.736;30.568;2023-07-08T15:20:43;20.73;72.47
71128;SHT30;59249;59.736;30.568;2023-07-08T15:23:12;20.93;72.31
71128;SHT30;59249;59.736;30.568;2023-07-08T15:25:44;21.14;72.24
71128;SHT30;59249;59.736;30.568;2023-07-08T15:28:18;21.25;72.25
71128;SHT30;59249;59.736;30.568;2023-07-08T15:30:49;21.43;72.33
71128;SHT30;59249;59.736;30.568;2023-07-08T15:33:19;21.87;71.15
71128;SHT30;59249;59.736;30.568;2023-07-08T15:35:48;22.44;68.87
71128;SHT30;59249;59.736;30.568;2023-07-08T15:38:17;23.05;67.41
71128;SHT30;59249;59.736;30.568;2023-07-08T15:40:45;23.57;65.01
71128;SHT30;59249;59.736;30.568;2023-07-08T15:43:18;24.11;64.06
71128;SHT30;59249;59.736;30.568;2023-07-08T15:45:48;24.61;62.01
71128;SHT30;59249;59.736;30.568;2023-07-08T15:48:18;25.00;61.39
71128;SHT30;59249;59.736;30.568;2023-07-08T15:50:47;25.18;60.24